sensor_id;sensor_type;location;lat;lon;timestamp;temperature;humidity
74588;SHT31;63088;51.090;-115.358;2022-09-12T00:02:13;24.78;27.33
74588;SHT31;63088;51.090;-115.358;2022-09-12T00:04:43;24.77;27.30
74588;SHT31;63088;51.090;-115.358;2022-09-12T00:07:10;24.78;27.30
74588;SHT31;63088;51.090;-115.358;2022-09-12T00:09:39;24.78;27.33
74588;SHT31;63088;51.090;-115.358;2022-09-12T00:12:06;24.79;27.30
74588;SHT31;63088;51.090;-115.358;2022-09-12T00:14:34;24.81;27.30
74588;SHT31;63088;51.090;-115.358;2022-09-12T00:17:01;24.80;27.29
74588;SHT31;63088;51.090;-115.358;2022-09-12T00:19:31;24.82;27.29
74588;SHT31;63088;51.090;-115.358;2022-09-12T00:21:59;24.81;27.26
74588;SHT31;63088;51.090;-115.358;2022-09-12T00:24:26;24.82;27.23
74588;SHT31;63088;51.090;-115.358;2022-09-12T00:27:01;24.84;27.21
74588;SHT31;63088;51.090;-115.358;2022-09-12T00:29:30;24.84;27.20
74588;SHT31;63088;51.090;-115.358;2022-09-12T00:32:00;24.85;27.19
74588;SHT31;63088;51.090;-115.358;2022-09-12T00:34:36;24.86;27.20
74588;SHT31;63088;51.090;-115.358;2022-09-12T00:37:03;24.86;27.15
74588;SHT31;63088;51.090;-115.358;2022-09-12T00:39:30;24.87;27.12
74588;SHT31;63088;51.090;-115.358;2022-09-12T00:41:57;24.88;27.10
74588;SHT31;63088;51.090;-115.358;2022-09-12T00:46:54;24.89;27.10
74588;SHT31;63088;51.090;-115.358;2022-09-12T00:49:30;24.90;27.08
74588;SHT31;63088;51.090;-115.358;2022-09-12T00:52:11;24.92;27.08
74588;SHT31;63088;51.090;-115.358;2022-09-12T01:00:44;24.91;27.00
74588;SHT31;63088;51.090;-115.358;2022-09-12T01:03:12;24.91;27.03
74588;SHT31;63088;51.090;-115.358;2022-09-12T01:05:45;24.91;27.02
74588;SHT31;63088;51.090;-115.358;2022-09-12T01:08:22;24.93;26.99
74588;SHT31;63088;51.090;-115.358;2022-09-12T01:11:00;24.92;27.00
74588;SHT31;63088;51.090;-115.358;2022-09-12T01:13:40;24.91;26.99
74588;SHT31;63088;51.090;-115.358;2022-09-12T01:16:18;24.92;27.00
74588;SHT31;63088;51.090;-115.358;2022-09-12T01:31:52;24.94;26.94
74588;SHT31;63088;51.090;-115.358;2022-09-12T01:36:57;24.94;26.93
74588;SHT31;63088;51.090;-115.358;2022-09-12T01:45:38;24.93;26.90
74588;SHT31;63088;51.090;-115.358;2022-09-12T01:48:29;24.93;26.90
74588;SHT31;63088;51.090;-115.358;2022-09-12T01:54:15;24.93;26.89
74588;SHT31;63088;51.090;-115.358;2022-09-12T01:57:00;24.94;26.87
74588;SHT31;63088;51.090;-115.358;2022-09-12T01:59:45;24.93;26.87
74588;SHT31;63088;51.090;-115.358;2022-09-12T02:02:35;24.93;26.84
74588;SHT31;63088;51.090;-115.358;2022-09-12T02:05:33;24.94;26.83
74588;SHT31;63088;51.090;-115.358;2022-09-12T02:13:46;24.92;26.84
74588;SHT31;63088;51.090;-115.358;2022-09-12T02:16:29;24.93;26.82
74588;SHT31;63088;51.090;-115.358;2022-09-12T02:19:15;24.92;26.87
74588;SHT31;63088;51.090;-115.358;2022-09-12T02:21:56;24.91;26.87
74588;SHT31;63088;51.090;-115.358;2022-09-12T02:24:39;24.92;26.86
74588;SHT31;63088;51.090;-115.358;2022-09-12T02:27:15;24.90;26.84
74588;SHT31;63088;51.090;-115.358;2022-09-12T02:30:03;24.91;26.84
74588;SHT31;63088;51.090;-115.358;2022-09-12T02:32:35;24.90;26.80
74588;SHT31;63088;51.090;-115.358;2022-09-12T02:35:38;24.91;26.80
74588;SHT31;63088;51.090;-115.358;2022-09-12T02:38:27;24.91;26.81
74588;SHT31;63088;51.090;-115.358;2022-09-12T02:41:10;24.90;26.79
74588;SHT31;63088;51.090;-115.358;2022-09-12T02:43:42;24.90;26.80
74588;SHT31;63088;51.090;-115.358;2022-09-12T02:46:10;24.89;26.80
74588;SHT31;63088;51.090;-115.358;2022-09-12T02:49:03;24.89;26.79
74588;SHT31;63088;51.090;-115.358;2022-09-12T02:51:30;24.89;26.76
74588;SHT31;63088;51.090;-115.358;2022-09-12T02:53:57;24.89;26.80
74588;SHT31;63088;51.090;-115.358;2022-09-12T02:56:29;24.87;26.78
74588;SHT31;63088;51.090;-115.358;2022-09-12T02:59:00;24.86;26.79
74588;SHT31;63088;51.090;-115.358;2022-09-12T03:10:07;24.86;26.79
74588;SHT31;63088;51.090;-115.358;2022-09-12T03:16:25;24.84;26.75
74588;SHT31;63088;51.090;-115.358;2022-09-12T03:19:28;24.84;26.79
74588;SHT31;63088;51.090;-115.358;2022-09-12T03:22:52;24.83;26.75
74588;SHT31;63088;51.090;-115.358;2022-09-12T03:25:58;24.83;26.79
74588;SHT31;63088;51.090;-115.358;2022-09-12T03:28:34;24.83;26.78
74588;SHT31;63088;51.090;-115.358;2022-09-12T03:31:14;24.82;26.77
74588;SHT31;63088;51.090;-115.358;2022-09-12T03:33:44;24.82;26.79
74588;SHT31;63088;51.090;-115.358;2022-09-12T03:36:16;24.82;26.80
74588;SHT31;63088;51.090;-115.358;2022-09-12T03:38:50;24.82;26.80
74588;SHT31;63088;51.090;-115.358;2022-09-12T03:41:17;24.82;26.80
74588;SHT31;63088;51.090;-115.358;2022-09-12T03:43:48;24.81;26.79
74588;SHT31;63088;51.090;-115.358;2022-09-12T03:46:15;24.81;26.80
74588;SHT31;63088;51.090;-115.358;2022-09-12T03:48:41;24.82;26.79
74588;SHT31;63088;51.090;-115.358;2022-09-12T03:51:08;24.82;26.80
74588;SHT31;63088;51.090;-115.358;2022-09-12T03:53:42;24.81;26.80
74588;SHT31;63088;51.090;-115.358;2022-09-12T03:56:10;24.80;26.80
74588;SHT31;63088;51.090;-115.358;2022-09-12T03:58:37;24.81;26.76
74588;SHT31;63088;51.090;-115.358;2022-09-12T04:01:12;24.80;26.79
74588;SHT31;63088;51.090;-115.358;2022-09-12T04:03:42;24.78;26.78
74588;SHT31;63088;51.090;-115.358;2022-09-12T04:06:12;24.78;26.79
74588;SHT31;63088;51.090;-115.358;2022-09-12T04:08:42;24.78;26.79
74588;SHT31;63088;51.090;-115.358;2022-09-12T04:11:14;24.79;26.79
74588;SHT31;63088;51.090;-115.358;2022-09-12T04:13:46;24.78;26.79
74588;SHT31;63088;51.090;-115.358;2022-09-12T04:16:14;24.77;26.80
74588;SHT31;63088;51.090;-115.358;2022-09-12T04:18:43;24.77;26.77
74588;SHT31;63088;51.090;-115.358;2022-09-12T04:21:16;24.77;26.78
74588;SHT31;63088;51.090;-115.358;2022-09-12T04:23:46;24.77;26.75
74588;SHT31;63088;51.090;-115.358;2022-09-12T04:26:14;24.76;26.80
74588;SHT31;63088;51.090;-115.358;2022-09-12T04:28:45;24.76;26.80
74588;SHT31;63088;51.090;-115.358;2022-09-12T04:31:13;24.76;26.80
74588;SHT31;63088;51.090;-115.358;2022-09-12T04:33:45;24.75;26.80
74588;SHT31;63088;51.090;-115.358;2022-09-12T04:36:13;24.75;26.78
74588;SHT31;63088;51.090;-115.358;2022-09-12T04:38:45;24.76;26.75
74588;SHT31;63088;51.090;-115.358;2022-09-12T04:41:16;24.74;26.79
74588;SHT31;63088;51.090;-115.358;2022-09-12T04:43:53;24.73;26.77
74588;SHT31;63088;51.090;-115.358;2022-09-12T04:46:32;24.73;26.79
74588;SHT31;63088;51.090;-115.358;2022-09-12T04:49:03;24.72;26.80
74588;SHT31;63088;51.090;-115.358;2022-09-12T04:51:33;24.72;26.79
74588;SHT31;63088;51.090;-115.358;2022-09-12T04:54:10;24.72;26.79
74588;SHT31;63088;51.090;-115.358;2022-09-12T04:56:44;24.70;26.79
74588;SHT31;63088;51.090;-115.358;2022-09-12T04:59:16;24.71;26.77
74588;SHT31;63088;51.090;-115.358;2022-09-12T05:01:45;24.69;26.80
74588;SHT31;63088;51.090;-115.358;2022-09-12T05:04:13;24.69;26.79
74588;SHT31;63088;51.090;-115.358;2022-09-12T05:06:42;24.68;26.80
74588;SHT31;63088;51.090;-115.358;2022-09-12T05:09:14;24.67;26.80
74588;SHT31;63088;51.090;-115.358;2022-09-12T05:12:01;24.68;26.80
74588;SHT31;63088;51.090;-115.358;2022-09-12T05:14:29;24.67;26.78
74588;SHT31;63088;51.090;-115.358;2022-09-12T05:16:57;24.67;26.79
74588;SHT31;63088;51.090;-115.358;2022-09-12T05:19:29;24.67;26.80
74588;SHT31;63088;51.090;-115.358;2022-09-12T05:21:57;24.66;26.79
74588;SHT31;63088;51.090;-115.358;2022-09-12T05:24:26;24.66;26.76
74588;SHT31;63088;51.090;-115.358;2022-09-12T05:26:53;24.66;26.78
74588;SHT31;63088;51.090;-115.358;2022-09-12T05:29:23;24.65;26.77
74588;SHT31;63088;51.090;-115.358;2022-09-12T05:31:50;24.65;26.79
74588;SHT31;63088;51.090;-115.358;2022-09-12T05:34:20;24.64;26.80
74588;SHT31;63088;51.090;-115.358;2022-09-12T05:36:47;24.62;26.81
74588;SHT31;63088;51.090;-115.358;2022-09-12T05:39:17;24.62;26.79
74588;SHT31;63088;51.090;-115.358;2022-09-12T05:41:46;24.61;26.80
74588;SHT31;63088;51.090;-115.358;2022-09-12T05:44:13;24.62;26.80
74588;SHT31;63088;51.090;-115.358;2022-09-12T05:46:41;24.61;26.81
74588;SHT31;63088;51.090;-115.358;2022-09-12T05:49:14;24.61;26.81
74588;SHT31;63088;51.090;-115.358;2022-09-12T05:51:42;24.61;26.81
74588;SHT31;63088;51.090;-115.358;2022-09-12T05:54:11;24.60;26.81
74588;SHT31;63088;51.090;-115.358;2022-09-12T05:56:43;24.60;26.83
74588;SHT31;63088;51.090;-115.358;2022-09-12T05:59:15;24.59;26.82
74588;SHT31;63088;51.090;-115.358;2022-09-12T06:01:52;24.58;26.82
74588;SHT31;63088;51.090;-115.358;2022-09-12T06:04:19;24.57;26.83
74588;SHT31;63088;51.090;-115.358;2022-09-12T06:06:47;24.56;26.83
74588;SHT31;63088;51.090;-115.358;2022-09-12T06:09:16;24.56;26.81
74588;SHT31;63088;51.090;-115.358;2022-09-12T06:11:54;24.56;26.84
74588;SHT31;63088;51.090;-115.358;2022-09-12T06:14:23;24.55;26.82
74588;SHT31;63088;51.090;-115.358;2022-09-12T06:16:50;24.56;26.83
74588;SHT31;63088;51.090;-115.358;2022-09-12T06:19:18;24.55;26.82
74588;SHT31;63088;51.090;-115.358;2022-09-12T06:21:48;24.53;26.83
74588;SHT31;63088;51.090;-115.358;2022-09-12T06:24:16;24.53;26.84
74588;SHT31;63088;51.090;-115.358;2022-09-12T06:26:44;24.51;26.88
74588;SHT31;63088;51.090;-115.358;2022-09-12T06:29:18;24.52;26.87
74588;SHT31;63088;51.090;-115.358;2022-09-12T06:31:46;24.51;26.86
74588;SHT31;63088;51.090;-115.358;2022-09-12T06:34:18;24.51;26.86
74588;SHT31;63088;51.090;-115.358;2022-09-12T06:36:46;24.50;26.86
74588;SHT31;63088;51.090;-115.358;2022-09-12T06:39:19;24.50;26.88
74588;SHT31;63088;51.090;-115.358;2022-09-12T06:41:48;24.49;26.88
74588;SHT31;63088;51.090;-115.358;2022-09-12T06:44:18;24.49;26.89
74588;SHT31;63088;51.090;-115.358;2022-09-12T06:46:47;24.48;26.88
74588;SHT31;63088;51.090;-115.358;2022-09-12T06:49:18;24.48;26.90
74588;SHT31;63088;51.090;-115.358;2022-09-12T06:51:45;24.47;26.90
74588;SHT31;63088;51.090;-115.358;2022-09-12T06:54:12;24.46;26.91
74588;SHT31;63088;51.090;-115.358;2022-09-12T06:56:44;24.45;26.92
74588;SHT31;63088;51.090;-115.358;2022-09-12T06:59:11;24.43;26.96
74588;SHT31;63088;51.090;-115.358;2022-09-12T07:01:44;24.42;26.97
74588;SHT31;63088;51.090;-115.358;2022-09-12T07:04:12;24.40;27.00
74588;SHT31;63088;51.090;-115.358;2022-09-12T07:06:41;24.40;27.00
74588;SHT31;63088;51.090;-115.358;2022-09-12T07:09:10;24.40;27.00
74588;SHT31;63088;51.090;-115.358;2022-09-12T07:11:42;24.40;27.00
74588;SHT31;63088;51.090;-115.358;2022-09-12T07:14:13;24.39;27.06
74588;SHT31;63088;51.090;-115.358;2022-09-12T07:16:45;24.38;27.00
74588;SHT31;63088;51.090;-115.358;2022-09-12T07:19:34;24.38;27.02
74588;SHT31;63088;51.090;-115.358;2022-09-12T07:22:12;24.38;27.03
74588;SHT31;63088;51.090;-115.358;2022-09-12T07:24:49;24.36;27.07
74588;SHT31;63088;51.090;-115.358;2022-09-12T07:27:20;24.35;27.10
74588;SHT31;63088;51.090;-115.358;2022-09-12T07:29:56;24.34;27.05
74588;SHT31;63088;51.090;-115.358;2022-09-12T07:32:24;24.34;27.09
74588;SHT31;63088;51.090;-115.358;2022-09-12T07:34:51;24.32;27.11
74588;SHT31;63088;51.090;-115.358;2022-09-12T07:37:18;24.31;27.13
74588;SHT31;63088;51.090;-115.358;2022-09-12T07:39:48;24.31;27.12
74588;SHT31;63088;51.090;-115.358;2022-09-12T07:42:20;24.32;27.14
74588;SHT31;63088;51.090;-115.358;2022-09-12T07:44:53;24.30;27.12
74588;SHT31;63088;51.090;-115.358;2022-09-12T07:47:26;24.31;27.14
74588;SHT31;63088;51.090;-115.358;2022-09-12T07:50:01;24.30;27.19
74588;SHT31;63088;51.090;-115.358;2022-09-12T07:52:28;24.30;27.18
74588;SHT31;63088;51.090;-115.358;2022-09-12T07:54:55;24.29;27.17
74588;SHT31;63088;51.090;-115.358;2022-09-12T07:57:25;24.28;27.20
74588;SHT31;63088;51.090;-115.358;2022-09-12T07:59:52;24.26;27.21
74588;SHT31;63088;51.090;-115.358;2022-09-12T08:02:32;24.26;27.20
74588;SHT31;63088;51.090;-115.358;2022-09-12T08:05:02;24.26;27.20
74588;SHT31;63088;51.090;-115.358;2022-09-12T08:07:32;24.25;27.23
74588;SHT31;63088;51.090;-115.358;2022-09-12T08:10:02;24.24;27.22
74588;SHT31;63088;51.090;-115.358;2022-09-12T08:12:30;24.23;27.26
74588;SHT31;63088;51.090;-115.358;2022-09-12T08:15:01;24.22;27.28
74588;SHT31;63088;51.090;-115.358;2022-09-12T08:17:28;24.21;27.29
74588;SHT31;63088;51.090;-115.358;2022-09-12T08:20:01;24.20;27.30
74588;SHT31;63088;51.090;-115.358;2022-09-12T08:22:32;24.18;27.30
74588;SHT31;63088;51.090;-115.358;2022-09-12T08:25:17;24.17;27.31
74588;SHT31;63088;51.090;-115.358;2022-09-12T08:27:44;24.16;27.31
74588;SHT31;63088;51.090;-115.358;2022-09-12T08:30:11;24.14;27.32
74588;SHT31;63088;51.090;-115.358;2022-09-12T08:32:44;24.14;27.34
74588;SHT31;63088;51.090;-115.358;2022-09-12T08:35:14;24.14;27.34
74588;SHT31;63088;51.090;-115.358;2022-09-12T08:37:40;24.12;27.35
74588;SHT31;63088;51.090;-115.358;2022-09-12T08:40:09;24.11;27.39
74588;SHT31;63088;51.090;-115.358;2022-09-12T08:42:47;24.09;27.40
74588;SHT31;63088;51.090;-115.358;2022-09-12T08:45:53;24.08;27.40
74588;SHT31;63088;51.090;-115.358;2022-09-12T08:48:36;24.08;27.40
74588;SHT31;63088;51.090;-115.358;2022-09-12T08:51:14;24.08;27.42
74588;SHT31;63088;51.090;-115.358;2022-09-12T08:53:45;24.07;27.43
74588;SHT31;63088;51.090;-115.358;2022-09-12T08:56:15;24.06;27.47
74588;SHT31;63088;51.090;-115.358;2022-09-12T08:58:45;24.05;27.49
74588;SHT31;63088;51.090;-115.358;2022-09-12T09:13:22;23.95;27.61
74588;SHT31;63088;51.090;-115.358;2022-09-12T09:16:45;23.93;27.63
74588;SHT31;63088;51.090;-115.358;2022-09-12T09:22:20;23.91;27.69
74588;SHT31;63088;51.090;-115.358;2022-09-12T09:25:19;23.89;27.70
74588;SHT31;63088;51.090;-115.358;2022-09-12T09:27:52;23.89;27.70
74588;SHT31;63088;51.090;-115.358;2022-09-12T09:30:32;23.87;27.71
74588;SHT31;63088;51.090;-115.358;2022-09-12T09:33:01;23.86;27.72
74588;SHT31;63088;51.090;-115.358;2022-09-12T09:35:48;23.85;27.79
74588;SHT31;63088;51.090;-115.358;2022-09-12T09:38:47;23.83;27.80
74588;SHT31;63088;51.090;-115.358;2022-09-12T09:45:13;23.81;27.80
74588;SHT31;63088;51.090;-115.358;2022-09-12T09:50:56;23.79;27.81
74588;SHT31;63088;51.090;-115.358;2022-09-12T09:56:27;23.76;27.81
74588;SHT31;63088;51.090;-115.358;2022-09-12T09:59:07;23.75;27.84
74588;SHT31;63088;51.090;-115.358;2022-09-12T10:04:24;23.73;27.90
74588;SHT31;63088;51.090;-115.358;2022-09-12T10:06:56;23.73;27.90
74588;SHT31;63088;51.090;-115.358;2022-09-12T10:09:30;23.72;27.90
74588;SHT31;63088;51.090;-115.358;2022-09-12T10:11:59;23.70;27.90
74588;SHT31;63088;51.090;-115.358;2022-09-12T10:14:56;23.69;27.90
74588;SHT31;63088;51.090;-115.358;2022-09-12T10:17:28;23.68;27.94
74588;SHT31;63088;51.090;-115.358;2022-09-12T10:19:59;23.67;27.95
74588;SHT31;63088;51.090;-115.358;2022-09-12T10:22:27;23.65;27.98
74588;SHT31;63088;51.090;-115.358;2022-09-12T10:24:58;23.64;27.98
74588;SHT31;63088;51.090;-115.358;2022-09-12T10:27:29;23.63;27.99
74588;SHT31;63088;51.090;-115.358;2022-09-12T10:30:02;23.62;28.00
74588;SHT31;63088;51.090;-115.358;2022-09-12T10:32:41;23.60;28.00
74588;SHT31;63088;51.090;-115.358;2022-09-12T10:35:16;23.59;28.02
74588;SHT31;63088;51.090;-115.358;2022-09-12T10:38:35;23.58;28.03
74588;SHT31;63088;51.090;-115.358;2022-09-12T10:41:07;23.56;28.04
74588;SHT31;63088;51.090;-115.358;2022-09-12T10:43:37;23.56;28.08
74588;SHT31;63088;51.090;-115.358;2022-09-12T10:46:22;23.55;28.06
74588;SHT31;63088;51.090;-115.358;2022-09-12T10:49:16;23.54;28.09
74588;SHT31;63088;51.090;-115.358;2022-09-12T10:55:04;23.50;28.14
74588;SHT31;63088;51.090;-115.358;2022-09-12T11:07:20;23.43;28.18
74588;SHT31;63088;51.090;-115.358;2022-09-12T11:10:34;23.42;28.19
74588;SHT31;63088;51.090;-115.358;2022-09-12T11:19:51;23.37;28.22
74588;SHT31;63088;51.090;-115.358;2022-09-12T11:22:56;23.36;28.24
74588;SHT31;63088;51.090;-115.358;2022-09-12T11:29:37;23.33;28.25
74588;SHT31;63088;51.090;-115.358;2022-09-12T11:40:30;23.28;28.29
74588;SHT31;63088;51.090;-115.358;2022-09-12T11:46:38;23.25;28.27
74588;SHT31;63088;51.090;-115.358;2022-09-12T11:51:52;23.22;28.30
74588;SHT31;63088;51.090;-115.358;2022-09-12T11:57:41;23.18;28.30
74588;SHT31;63088;51.090;-115.358;2022-09-12T12:00:22;23.17;28.30
74588;SHT31;63088;51.090;-115.358;2022-09-12T12:03:33;23.16;28.31
74588;SHT31;63088;51.090;-115.358;2022-09-12T12:06:20;23.15;28.30
74588;SHT31;63088;51.090;-115.358;2022-09-12T12:09:04;23.14;28.30
74588;SHT31;63088;51.090;-115.358;2022-09-12T12:11:39;23.13;28.30
74588;SHT31;63088;51.090;-115.358;2022-09-12T12:14:20;23.13;28.33
74588;SHT31;63088;51.090;-115.358;2022-09-12T12:16:54;23.12;28.34
74588;SHT31;63088;51.090;-115.358;2022-09-12T12:19:35;23.10;28.35
74588;SHT31;63088;51.090;-115.358;2022-09-12T12:22:19;23.10;28.34
74588;SHT31;63088;51.090;-115.358;2022-09-12T12:27:50;23.05;28.38
74588;SHT31;63088;51.090;-115.358;2022-09-12T12:33:00;23.04;28.39
74588;SHT31;63088;51.090;-115.358;2022-09-12T12:36:08;23.02;28.39
74588;SHT31;63088;51.090;-115.358;2022-09-12T12:41:59;22.98;28.41
74588;SHT31;63088;51.090;-115.358;2022-09-12T12:44:47;22.98;28.40
74588;SHT31;63088;51.090;-115.358;2022-09-12T12:47:17;22.97;28.41
74588;SHT31;63088;51.090;-115.358;2022-09-12T12:53:13;22.94;28.43
74588;SHT31;63088;51.090;-115.358;2022-09-12T12:58:24;22.91;28.43
74588;SHT31;63088;51.090;-115.358;2022-09-12T13:03:46;22.90;28.43
74588;SHT31;63088;51.090;-115.358;2022-09-12T13:09:51;22.86;28.47
74588;SHT31;63088;51.090;-115.358;2022-09-12T13:12:27;22.84;28.49
74588;SHT31;63088;51.090;-115.358;2022-09-12T13:15:03;22.83;28.50
74588;SHT31;63088;51.090;-115.358;2022-09-12T13:18:09;22.83;28.50
74588;SHT31;63088;51.090;-115.358;2022-09-12T13:20:47;22.82;28.51
74588;SHT31;63088;51.090;-115.358;2022-09-12T13:24:12;22.79;28.53
74588;SHT31;63088;51.090;-115.358;2022-09-12T13:27:01;22.78;28.53
74588;SHT31;63088;51.090;-115.358;2022-09-12T13:33:26;22.75;28.53
74588;SHT31;63088;51.090;-115.358;2022-09-12T13:45:09;22.69;28.46
74588;SHT31;63088;51.090;-115.358;2022-09-12T13:47:50;22.68;28.45
74588;SHT31;63088;51.090;-115.358;2022-09-12T13:50:20;22.69;28.54
74588;SHT31;63088;51.090;-115.358;2022-09-12T13:52:52;22.69;28.59
74588;SHT31;63088;51.090;-115.358;2022-09-12T13:55:30;22.69;28.60
74588;SHT31;63088;51.090;-115.358;2022-09-12T13:58:18;22.69;28.61
74588;SHT31;63088;51.090;-115.358;2022-09-12T14:01:11;22.69;28.63
74588;SHT31;63088;51.090;-115.358;2022-09-12T14:03:48;22.70;28.66
74588;SHT31;63088;51.090;-115.358;2022-09-12T14:06:44;22.69;28.67
74588;SHT31;63088;51.090;-115.358;2022-09-12T14:09:24;22.69;28.69
74588;SHT31;63088;51.090;-115.358;2022-09-12T14:11:57;22.69;28.70
74588;SHT31;63088;51.090;-115.358;2022-09-12T14:14:41;22.68;28.70
74588;SHT31;63088;51.090;-115.358;2022-09-12T14:17:21;22.68;28.71
74588;SHT31;63088;51.090;-115.358;2022-09-12T14:20:00;22.67;28.75
74588;SHT31;63088;51.090;-115.358;2022-09-12T14:22:33;22.66;28.76
74588;SHT31;63088;51.090;-115.358;2022-09-12T14:25:03;22.65;28.79
74588;SHT31;63088;51.090;-115.358;2022-09-12T14:27:38;22.66;28.79
74588;SHT31;63088;51.090;-115.358;2022-09-12T14:35:46;22.62;28.94
74588;SHT31;63088;51.090;-115.358;2022-09-12T14:41:08;22.61;29.01
74588;SHT31;63088;51.090;-115.358;2022-09-12T14:43:39;22.60;29.06
74588;SHT31;63088;51.090;-115.358;2022-09-12T14:46:23;22.56;32.01
74588;SHT31;63088;51.090;-115.358;2022-09-12T14:49:19;22.51;32.60
74588;SHT31;63088;51.090;-115.358;2022-09-12T14:52:04;22.49;32.31
74588;SHT31;63088;51.090;-115.358;2022-09-12T14:57:41;22.51;32.18
74588;SHT31;63088;51.090;-115.358;2022-09-12T15:00:18;22.53;32.65
74588;SHT31;63088;51.090;-115.358;2022-09-12T15:02:48;22.54;32.30
74588;SHT31;63088;51.090;-115.358;2022-09-12T15:05:21;22.56;32.45
74588;SHT31;63088;51.090;-115.358;2022-09-12T15:08:00;22.57;31.74
74588;SHT31;63088;51.090;-115.358;2022-09-12T15:10:33;22.60;32.16
74588;SHT31;63088;51.090;-115.358;2022-09-12T15:13:15;22.61;31.94
74588;SHT31;63088;51.090;-115.358;2022-09-12T15:15:49;22.63;31.77
74588;SHT31;63088;51.090;-115.358;2022-09-12T15:18:25;22.63;31.68
74588;SHT31;63088;51.090;-115.358;2022-09-12T15:20:54;22.64;31.66
74588;SHT31;63088;51.090;-115.358;2022-09-12T15:23:34;22.67;31.58
74588;SHT31;63088;51.090;-115.358;2022-09-12T15:26:11;22.67;31.24
74588;SHT31;63088;51.090;-115.358;2022-09-12T15:28:41;22.69;31.16
74588;SHT31;63088;51.090;-115.358;2022-09-12T15:31:14;22.70;31.36
74588;SHT31;63088;51.090;-115.358;2022-09-12T15:33:51;22.72;31.02
74588;SHT31;63088;51.090;-115.358;2022-09-12T15:36:22;22.71;30.79
74588;SHT31;63088;51.090;-115.358;2022-09-12T15:39:00;22.72;30.57
74588;SHT31;63088;51.090;-115.358;2022-09-12T15:41:31;22.72;30.53
74588;SHT31;63088;51.090;-115.358;2022-09-12T15:44:05;22.74;30.66
74588;SHT31;63088;51.090;-115.358;2022-09-12T15:47:12;22.77;30.72
74588;SHT31;63088;51.090;-115.358;2022-09-12T15:49:39;22.78;30.78
74588;SHT31;63088;51.090;-115.358;2022-09-12T15:52:13;22.81;30.74
74588;SHT31;63088;51.090;-115.358;2022-09-12T15:55:02;22.82;30.71
74588;SHT31;63088;51.090;-115.358;2022-09-12T15:57:38;22.83;30.48
74588;SHT31;63088;51.090;-115.358;2022-09-12T16:00:05;22.84;30.50
74588;SHT31;63088;51.090;-115.358;2022-09-12T16:02:33;22.83;30.49
74588;SHT31;63088;51.090;-115.358;2022-09-12T16:05:04;22.83;30.45
74588;SHT31;63088;51.090;-115.358;2022-09-12T16:07:35;22.84;30.45
74588;SHT31;63088;51.090;-115.358;2022-09-12T16:10:02;22.84;30.46
74588;SHT31;63088;51.090;-115.358;2022-09-12T16:12:30;22.86;30.48
74588;SHT31;63088;51.090;-115.358;2022-09-12T16:15:29;22.86;30.45
74588;SHT31;63088;51.090;-115.358;2022-09-12T16:17:56;22.87;30.48
74588;SHT31;63088;51.090;-115.358;2022-09-12T16:20:23;22.86;30.52
74588;SHT31;63088;51.090;-115.358;2022-09-12T16:22:50;22.87;30.50
74588;SHT31;63088;51.090;-115.358;2022-09-12T16:25:20;22.88;30.51
74588;SHT31;63088;51.090;-115.358;2022-09-12T16:27:46;22.87;30.50
74588;SHT31;63088;51.090;-115.358;2022-09-12T16:30:25;22.88;30.54
74588;SHT31;63088;51.090;-115.358;2022-09-12T16:32:52;22.88;30.54
74588;SHT31;63088;51.090;-115.358;2022-09-12T16:35:21;22.89;30.52
74588;SHT31;63088;51.090;-115.358;2022-09-12T16:37:48;22.89;30.55
74588;SHT31;63088;51.090;-115.358;2022-09-12T16:40:15;22.89;30.60
74588;SHT31;63088;51.090;-115.358;2022-09-12T16:42:46;22.90;30.59
74588;SHT31;63088;51.090;-115.358;2022-09-12T16:45:13;22.90;30.62
74588;SHT31;63088;51.090;-115.358;2022-09-12T16:47:40;22.91;30.66
74588;SHT31;63088;51.090;-115.358;2022-09-12T16:50:07;22.91;30.67
74588;SHT31;63088;51.090;-115.358;2022-09-12T16:52:34;22.91;30.70
74588;SHT31;63088;51.090;-115.358;2022-09-12T16:55:04;22.92;30.71
74588;SHT31;63088;51.090;-115.358;2022-09-12T16:57:34;22.93;30.69
74588;SHT31;63088;51.090;-115.358;2022-09-12T17:00:01;22.93;30.72
74588;SHT31;63088;51.090;-115.358;2022-09-12T17:02:29;22.95;30.70
74588;SHT31;63088;51.090;-115.358;2022-09-12T17:05:01;22.95;30.70
74588;SHT31;63088;51.090;-115.358;2022-09-12T17:07:28;22.96;30.72
74588;SHT31;63088;51.090;-115.358;2022-09-12T17:10:05;22.96;30.71
74588;SHT31;63088;51.090;-115.358;2022-09-12T17:12:33;22.97;30.73
74588;SHT31;63088;51.090;-115.358;2022-09-12T17:15:03;22.98;30.79
74588;SHT31;63088;51.090;-115.358;2022-09-12T17:17:35;23.01;30.73
74588;SHT31;63088;51.090;-115.358;2022-09-12T17:20:02;23.00;30.70
74588;SHT31;63088;51.090;-115.358;2022-09-12T17:22:58;23.02;30.72
74588;SHT31;63088;51.090;-115.358;2022-09-12T17:25:34;23.03;30.70
74588;SHT31;63088;51.090;-115.358;2022-09-12T17:28:03;23.04;30.68
74588;SHT31;63088;51.090;-115.358;2022-09-12T17:30:42;23.05;30.62
74588;SHT31;63088;51.090;-115.358;2022-09-12T17:33:09;23.06;30.65
74588;SHT31;63088;51.090;-115.358;2022-09-12T17:35:39;23.07;30.63
74588;SHT31;63088;51.090;-115.358;2022-09-12T17:38:12;23.09;30.62
74588;SHT31;63088;51.090;-115.358;2022-09-12T17:40:52;23.10;30.61
74588;SHT31;63088;51.090;-115.358;2022-09-12T17:43:42;23.10;30.63
74588;SHT31;63088;51.090;-115.358;2022-09-12T17:46:15;23.12;30.70
74588;SHT31;63088;51.090;-115.358;2022-09-12T17:48:53;23.13;30.68
74588;SHT31;63088;51.090;-115.358;2022-09-12T17:51:25;23.13;30.71
74588;SHT31;63088;51.090;-115.358;2022-09-12T17:53:56;23.14;30.70
74588;SHT31;63088;51.090;-115.358;2022-09-12T17:56:30;23.15;30.74
74588;SHT31;63088;51.090;-115.358;2022-09-12T17:58:58;23.17;30.73
74588;SHT31;63088;51.090;-115.358;2022-09-12T18:01:29;23.18;30.71
74588;SHT31;63088;51.090;-115.358;2022-09-12T18:04:14;23.20;30.68
74588;SHT31;63088;51.090;-115.358;2022-09-12T18:06:42;23.21;30.66
74588;SHT31;63088;51.090;-115.358;2022-09-12T18:09:13;23.22;30.70
74588;SHT31;63088;51.090;-115.358;2022-09-12T18:11:54;23.24;30.74
74588;SHT31;63088;51.090;-115.358;2022-09-12T18:14:49;23.26;30.75
74588;SHT31;63088;51.090;-115.358;2022-09-12T18:17:16;23.28;30.77
74588;SHT31;63088;51.090;-115.358;2022-09-12T18:19:46;23.29;30.77
74588;SHT31;63088;51.090;-115.358;2022-09-12T18:22:18;23.31;30.75